sensor_id;sensor_type;location;lat;lon;timestamp;pressure;altitude;pressure_sealevel;temperature;humidity
75855;BME280;64502;59.976;30.316;2024-02-14T00:01:48;102235.78;;;-10.96;69.65
75855;BME280;64502;59.976;30.316;2024-02-14T00:04:14;102230.69;;;-10.96;69.60
75855;BME280;64502;59.976;30.316;2024-02-14T00:06:41;102237.53;;;-10.95;69.75
75855;BME280;64502;59.976;30.316;2024-02-14T00:09:06;102234.25;;;-10.92;69.09
75855;BME280;64502;59.976;30.316;2024-02-14T00:11:32;102240.34;;;-10.90;69.08
75855;BME280;64502;59.976;30.316;2024-02-14T00:13:58;102236.03;;;-10.91;69.14
75855;BME280;64502;59.976;30.316;2024-02-14T00:16:27;102238.34;;;-10.96;69.58
75855;BME280;64502;59.976;30.316;2024-02-14T00:18:55;102233.94;;;-10.98;69.27
75855;BME280;64502;59.976;30.316;2024-02-14T00:21:23;102241.59;;;-10.98;69.18
75855;BME280;64502;59.976;30.316;2024-02-14T00:23:50;102240.78;;;-10.97;69.75
75855;BME280;64502;59.976;30.316;2024-02-14T00:26:17;102249.25;;;-10.98;69.28
75855;BME280;64502;59.976;30.316;2024-02-14T00:28:42;102235.53;;;-11.00;69.34
75855;BME280;64502;59.976;30.316;2024-02-14T00:31:08;102233.06;;;-10.99;69.32
75855;BME280;64502;59.976;30.316;2024-02-14T00:33:34;102229.66;;;-10.99;69.98
75855;BME280;64502;59.976;30.316;2024-02-14T00:35:59;102232.22;;;-10.99;69.42
75855;BME280;64502;59.976;30.316;2024-02-14T00:38:26;102222.72;;;-11.02;68.89
75855;BME280;64502;59.976;30.316;2024-02-14T00:40:51;102220.88;;;-11.04;69.16
75855;BME280;64502;59.976;30.316;2024-02-14T00:43:17;102219.09;;;-11.05;68.99
75855;BME280;64502;59.976;30.316;2024-02-14T00:45:42;102215.63;;;-11.07;69.49
75855;BME280;64502;59.976;30.316;2024-02-14T00:48:09;102228.16;;;-11.10;69.09
75855;BME280;64502;59.976;30.316;2024-02-14T00:50:35;102230.56;;;-11.13;69.38
75855;BME280;64502;59.976;30.316;2024-02-14T00:53:01;102228.81;;;-11.14;69.51
75855;BME280;64502;59.976;30.316;2024-02-14T00:55:26;102232.22;;;-11.14;69.48
75855;BME280;64502;59.976;30.316;2024-02-14T00:57:52;102233.03;;;-11.15;69.80
75855;BME280;64502;59.976;30.316;2024-02-14T01:00:19;102228.81;;;-11.14;69.16
75855;BME280;64502;59.976;30.316;2024-02-14T01:02:45;102228.00;;;-11.13;69.51
75855;BME280;64502;59.976;30.316;2024-02-14T01:05:10;102229.69;;;-11.14;69.19
75855;BME280;64502;59.976;30.316;2024-02-14T01:07:36;102228.81;;;-11.14;69.20
75855;BME280;64502;59.976;30.316;2024-02-14T01:10:02;102232.94;;;-11.17;69.39
75855;BME280;64502;59.976;30.316;2024-02-14T01:12:28;102232.94;;;-11.17;69.28
75855;BME280;64502;59.976;30.316;2024-02-14T01:14:57;102226.00;;;-11.19;68.87
75855;BME280;64502;59.976;30.316;2024-02-14T01:17:23;102229.53;;;-11.17;68.93
75855;BME280;64502;59.976;30.316;2024-02-14T01:19:49;102233.75;;;-11.18;69.47
75855;BME280;64502;59.976;30.316;2024-02-14T01:22:15;102242.38;;;-11.15;69.14
75855;BME280;64502;59.976;30.316;2024-02-14T01:24:43;102229.63;;;-11.15;68.69
75855;BME280;64502;59.976;30.316;2024-02-14T01:27:09;102227.84;;;-11.17;68.82
75855;BME280;64502;59.976;30.316;2024-02-14T01:29:35;102228.66;;;-11.18;68.91
75855;BME280;64502;59.976;30.316;2024-02-14T01:32:01;102227.63;;;-11.21;68.71
75855;BME280;64502;59.976;30.316;2024-02-14T01:34:26;102226.72;;;-11.22;69.26
75855;BME280;64502;59.976;30.316;2024-02-14T01:36:53;102225.78;;;-11.24;69.45
75855;BME280;64502;59.976;30.316;2024-02-14T01:39:20;102232.53;;;-11.24;69.42
75855;BME280;64502;59.976;30.316;2024-02-14T01:41:48;102235.00;;;-11.26;68.98
75855;BME280;64502;59.976;30.316;2024-02-14T01:44:15;102242.53;;;-11.27;69.38
75855;BME280;64502;59.976;30.316;2024-02-14T01:46:42;102240.81;;;-11.28;69.23
75855;BME280;64502;59.976;30.316;2024-02-14T01:49:09;102238.25;;;-11.28;69.36
75855;BME280;64502;59.976;30.316;2024-02-14T01:51:38;102235.53;;;-11.31;69.06
75855;BME280;64502;59.976;30.316;2024-02-14T01:54:05;102233.88;;;-11.31;69.10
75855;BME280;64502;59.976;30.316;2024-02-14T01:56:31;102225.34;;;-11.31;68.72
75855;BME280;64502;59.976;30.316;2024-02-14T01:58:59;102227.81;;;-11.33;69.06
75855;BME280;64502;59.976;30.316;2024-02-14T02:04:08;102235.53;;;-11.31;68.78
75855;BME280;64502;59.976;30.316;2024-02-14T02:06:34;102231.31;;;-11.31;68.92
75855;BME280;64502;59.976;30.316;2024-02-14T02:09:00;102230.50;;;-11.30;69.12
75855;BME280;64502;59.976;30.316;2024-02-14T02:11:26;102220.31;;;-11.30;69.05
75855;BME280;64502;59.976;30.316;2024-02-14T02:13:52;102222.88;;;-11.30;68.88
75855;BME280;64502;59.976;30.316;2024-02-14T02:19:03;102207.69;;;-11.28;68.46
75855;BME280;64502;59.976;30.316;2024-02-14T02:21:30;102206.81;;;-11.29;68.35
75855;BME280;64502;59.976;30.316;2024-02-14T02:23:56;102211.97;;;-11.27;68.96
75855;BME280;64502;59.976;30.316;2024-02-14T02:26:22;102211.09;;;-11.28;68.96
75855;BME280;64502;59.976;30.316;2024-02-14T02:28:47;102217.16;;;-11.26;68.54
75855;BME280;64502;59.976;30.316;2024-02-14T02:31:13;102224.00;;;-11.25;68.47
75855;BME280;64502;59.976;30.316;2024-02-14T02:33:38;102222.31;;;-11.24;68.54
75855;BME280;64502;59.976;30.316;2024-02-14T02:36:04;102224.00;;;-11.25;68.31
75855;BME280;64502;59.976;30.316;2024-02-14T02:38:31;102226.56;;;-11.25;68.59
75855;BME280;64502;59.976;30.316;2024-02-14T02:40:57;102219.78;;;-11.24;68.73
75855;BME280;64502;59.976;30.316;2024-02-14T02:46:09;102215.59;;;-11.24;67.94
75855;BME280;64502;59.976;30.316;2024-02-14T02:48:34;102212.06;;;-11.26;68.46
75855;BME280;64502;59.976;30.316;2024-02-14T02:51:01;102210.31;;;-11.27;68.33
75855;BME280;64502;59.976;30.316;2024-02-14T02:53:26;102205.84;;;-11.31;68.38
75855;BME280;64502;59.976;30.316;2024-02-14T02:55:52;102205.75;;;-11.32;67.99
75855;BME280;64502;59.976;30.316;2024-02-14T02:58:19;102211.47;;;-11.36;68.23
75855;BME280;64502;59.976;30.316;2024-02-14T03:00:46;102202.00;;;-11.39;68.42
75855;BME280;64502;59.976;30.316;2024-02-14T03:03:15;102197.72;;;-11.40;68.49
75855;BME280;64502;59.976;30.316;2024-02-14T03:05:41;102203.69;;;-11.40;68.13
75855;BME280;64502;59.976;30.316;2024-02-14T03:08:25;102200.25;;;-11.40;68.32
75855;BME280;64502;59.976;30.316;2024-02-14T03:11:10;102193.56;;;-11.38;68.58
75855;BME280;64502;59.976;30.316;2024-02-14T03:13:35;102203.75;;;-11.38;68.45
75855;BME280;64502;59.976;30.316;2024-02-14T03:16:02;102204.72;;;-11.36;68.00
75855;BME280;64502;59.976;30.316;2024-02-14T03:18:30;102199.63;;;-11.36;67.99
75855;BME280;64502;59.976;30.316;2024-02-14T03:23:41;102202.16;;;-11.36;67.76
75855;BME280;64502;59.976;30.316;2024-02-14T03:26:07;102204.72;;;-11.36;68.25
75855;BME280;64502;59.976;30.316;2024-02-14T03:28:34;102205.41;;;-11.38;68.14
75855;BME280;64502;59.976;30.316;2024-02-14T03:30:59;102202.88;;;-11.38;67.96
75855;BME280;64502;59.976;30.316;2024-02-14T03:33:25;102215.53;;;-11.40;68.16
75855;BME280;64502;59.976;30.316;2024-02-14T03:35:51;102214.56;;;-11.42;68.08
75855;BME280;64502;59.976;30.316;2024-02-14T03:38:29;102217.13;;;-11.42;67.81
75855;BME280;64502;59.976;30.316;2024-02-14T03:40:56;102225.53;;;-11.43;68.39
75855;BME280;64502;59.976;30.316;2024-02-14T03:43:22;102226.34;;;-11.44;68.15
75855;BME280;64502;59.976;30.316;2024-02-14T03:45:49;102240.03;;;-11.42;68.53
75855;BME280;64502;59.976;30.316;2024-02-14T03:48:15;102234.16;;;-11.41;67.79
75855;BME280;64502;59.976;30.316;2024-02-14T03:50:41;102236.00;;;-11.38;67.75
75855;BME280;64502;59.976;30.316;2024-02-14T03:53:08;102232.66;;;-11.37;67.64
75855;BME280;64502;59.976;30.316;2024-02-14T03:55:36;102231.16;;;-11.34;67.50
75855;BME280;64502;59.976;30.316;2024-02-14T03:58:04;102237.28;;;-11.30;67.95
75855;BME280;64502;59.976;30.316;2024-02-14T04:00:30;102229.66;;;-11.30;67.85
75855;BME280;64502;59.976;30.316;2024-02-14T04:02:56;102232.53;;;-11.24;67.36
75855;BME280;64502;59.976;30.316;2024-02-14T04:05:25;102235.25;;;-11.21;66.99
75855;BME280;64502;59.976;30.316;2024-02-14T04:07:54;102226.09;;;-11.18;67.13
75855;BME280;64502;59.976;30.316;2024-02-14T04:10:21;102239.00;;;-11.14;67.14
75855;BME280;64502;59.976;30.316;2024-02-14T04:12:47;102232.50;;;-11.09;67.17
75855;BME280;64502;59.976;30.316;2024-02-14T04:15:13;102231.53;;;-11.11;66.60
75855;BME280;64502;59.976;30.316;2024-02-14T04:17:42;102241.88;;;-11.08;67.09
75855;BME280;64502;59.976;30.316;2024-02-14T04:20:08;102232.66;;;-11.06;67.03
75855;BME280;64502;59.976;30.316;2024-02-14T04:25:18;102244.75;;;-11.02;67.01
75855;BME280;64502;59.976;30.316;2024-02-14T04:27:44;102242.47;;;-10.98;66.76
75855;BME280;64502;59.976;30.316;2024-02-14T04:30:10;102229.16;;;-10.92;66.52
75855;BME280;64502;59.976;30.316;2024-02-14T04:32:36;102230.28;;;-10.87;66.39
75855;BME280;64502;59.976;30.316;2024-02-14T04:35:01;102230.56;;;-10.82;66.08
75855;BME280;64502;59.976;30.316;2024-02-14T04:37:46;102224.09;;;-10.76;65.45
75855;BME280;64502;59.976;30.316;2024-02-14T04:40:13;102227.59;;;-10.74;65.86
75855;BME280;64502;59.976;30.316;2024-02-14T04:42:40;102229.19;;;-10.76;65.65
75855;BME280;64502;59.976;30.316;2024-02-14T04:45:06;102234.28;;;-10.76;65.47
75855;BME280;64502;59.976;30.316;2024-02-14T04:47:32;102231.69;;;-10.77;65.78
75855;BME280;64502;59.976;30.316;2024-02-14T04:49:58;102234.13;;;-10.79;64.94
75855;BME280;64502;59.976;30.316;2024-02-14T04:52:27;102229.84;;;-10.80;65.44
75855;BME280;64502;59.976;30.316;2024-02-14T04:54:53;102243.28;;;-10.82;65.23
75855;BME280;64502;59.976;30.316;2024-02-14T04:57:19;102226.16;;;-10.85;64.84
75855;BME280;64502;59.976;30.316;2024-02-14T04:59:45;102234.69;;;-10.84;65.83
75855;BME280;64502;59.976;30.316;2024-02-14T05:02:13;102231.16;;;-10.86;65.23
75855;BME280;64502;59.976;30.316;2024-02-14T05:04:39;102235.38;;;-10.87;65.73
75855;BME280;64502;59.976;30.316;2024-02-14T05:07:04;102231.16;;;-10.86;66.01
75855;BME280;64502;59.976;30.316;2024-02-14T05:09:30;102240.50;;;-10.87;65.87
75855;BME280;64502;59.976;30.316;2024-02-14T05:11:56;102230.28;;;-10.87;66.48
75855;BME280;64502;59.976;30.316;2024-02-14T05:14:21;102232.13;;;-10.84;66.27
75855;BME280;64502;59.976;30.316;2024-02-14T05:16:47;102239.69;;;-10.86;66.25
75855;BME280;64502;59.976;30.316;2024-02-14T05:19:13;102228.00;;;-10.82;66.79
75855;BME280;64502;59.976;30.316;2024-02-14T05:21:39;102249.59;;;-10.76;66.35
75855;BME280;64502;59.976;30.316;2024-02-14T05:24:05;102237.09;;;-10.71;66.42
75855;BME280;64502;59.976;30.316;2024-02-14T05:26:32;102247.59;;;-10.65;66.82
75855;BME280;64502;59.976;30.316;2024-02-14T05:28:58;102250.56;;;-10.57;66.85
75855;BME280;64502;59.976;30.316;2024-02-14T05:31:24;102259.75;;;-10.44;66.87
75855;BME280;64502;59.976;30.316;2024-02-14T05:33:50;102262.75;;;-10.35;65.53
75855;BME280;64502;59.976;30.316;2024-02-14T05:36:16;102256.44;;;-10.25;65.74
75855;BME280;64502;59.976;30.316;2024-02-14T05:38:42;102255.06;;;-10.19;64.83
75855;BME280;64502;59.976;30.316;2024-02-14T05:41:07;102259.53;;;-10.15;64.39
75855;BME280;64502;59.976;30.316;2024-02-14T05:43:33;102265.50;;;-10.14;64.17
75855;BME280;64502;59.976;30.316;2024-02-14T05:46:01;102268.22;;;-10.11;63.74
75855;BME280;64502;59.976;30.316;2024-02-14T05:48:26;102263.97;;;-10.11;63.84
75855;BME280;64502;59.976;30.316;2024-02-14T05:50:52;102257.13;;;-10.12;63.61
75855;BME280;64502;59.976;30.316;2024-02-14T05:53:18;102268.38;;;-10.08;64.12
75855;BME280;64502;59.976;30.316;2024-02-14T05:55:44;102269.38;;;-10.05;63.87
75855;BME280;64502;59.976;30.316;2024-02-14T05:58:10;102267.88;;;-10.01;63.81
75855;BME280;64502;59.976;30.316;2024-02-14T06:00:37;102263.81;;;-9.97;63.44
75855;BME280;64502;59.976;30.316;2024-02-14T06:03:02;102268.97;;;-9.96;63.77
75855;BME280;64502;59.976;30.316;2024-02-14T06:05:30;102263.72;;;-9.99;63.47
75855;BME280;64502;59.976;30.316;2024-02-14T06:07:56;102268.91;;;-9.97;63.63
75855;BME280;64502;59.976;30.316;2024-02-14T06:10:22;102263.94;;;-9.94;63.60
75855;BME280;64502;59.976;30.316;2024-02-14T06:12:48;102265.78;;;-9.92;63.35
75855;BME280;64502;59.976;30.316;2024-02-14T06:15:14;102260.00;;;-9.88;63.74
75855;BME280;64502;59.976;30.316;2024-02-14T06:17:40;102261.84;;;-9.85;63.09
75855;BME280;64502;59.976;30.316;2024-02-14T06:20:06;102261.28;;;-9.79;63.31
75855;BME280;64502;59.976;30.316;2024-02-14T06:22:33;102268.38;;;-9.74;62.98
75855;BME280;64502;59.976;30.316;2024-02-14T06:24:59;102263.56;;;-9.68;63.00
75855;BME280;64502;59.976;30.316;2024-02-14T06:27:25;102264.88;;;-9.58;62.76
75855;BME280;64502;59.976;30.316;2024-02-14T06:29:53;102266.06;;;-9.51;63.43
75855;BME280;64502;59.976;30.316;2024-02-14T06:32:18;102251.75;;;-9.48;62.17
75855;BME280;64502;59.976;30.316;2024-02-14T06:34:44;102265.72;;;-9.41;62.01
75855;BME280;64502;59.976;30.316;2024-02-14T06:37:10;102253.00;;;-9.40;61.83
75855;BME280;64502;59.976;30.316;2024-02-14T06:39:36;102247.06;;;-9.39;61.45
75855;BME280;64502;59.976;30.316;2024-02-14T06:42:01;102267.59;;;-9.37;61.05
75855;BME280;64502;59.976;30.316;2024-02-14T06:44:27;102257.63;;;-9.32;61.95
75855;BME280;64502;59.976;30.316;2024-02-14T06:46:52;102256.22;;;-9.26;61.73
75855;BME280;64502;59.976;30.316;2024-02-14T06:49:18;102255.72;;;-9.19;61.08
75855;BME280;64502;59.976;30.316;2024-02-14T06:51:44;102261.19;;;-9.11;60.88
75855;BME280;64502;59.976;30.316;2024-02-14T06:54:10;102257.97;;;-9.07;61.09
75855;BME280;64502;59.976;30.316;2024-02-14T06:56:38;102252.09;;;-9.04;61.03
75855;BME280;64502;59.976;30.316;2024-02-14T06:59:04;102254.81;;;-9.01;60.72
75855;BME280;64502;59.976;30.316;2024-02-14T07:01:30;102259.13;;;-9.00;60.91
75855;BME280;64502;59.976;30.316;2024-02-14T07:03:57;102253.44;;;-8.95;61.01
75855;BME280;64502;59.976;30.316;2024-02-14T07:06:23;102255.38;;;-8.89;59.47
75855;BME280;64502;59.976;30.316;2024-02-14T07:08:49;102255.56;;;-8.84;60.91
75855;BME280;64502;59.976;30.316;2024-02-14T07:11:15;102259.22;;;-8.79;60.74
75855;BME280;64502;59.976;30.316;2024-02-14T07:13:43;102258.63;;;-8.74;60.84
75855;BME280;64502;59.976;30.316;2024-02-14T07:16:09;102249.81;;;-8.61;60.58
75855;BME280;64502;59.976;30.316;2024-02-14T07:18:35;102252.91;;;-8.49;60.80
75855;BME280;64502;59.976;30.316;2024-02-14T07:21:00;102251.66;;;-8.39;59.24
75855;BME280;64502;59.976;30.316;2024-02-14T07:23:26;102245.75;;;-8.36;59.01
75855;BME280;64502;59.976;30.316;2024-02-14T07:25:53;102252.75;;;-8.32;58.82
75855;BME280;64502;59.976;30.316;2024-02-14T07:28:18;102252.22;;;-8.25;59.07
75855;BME280;64502;59.976;30.316;2024-02-14T07:30:44;102248.16;;;-8.20;59.09
75855;BME280;64502;59.976;30.316;2024-02-14T07:33:11;102262.09;;;-8.13;59.27
75855;BME280;64502;59.976;30.316;2024-02-14T07:35:36;102256.31;;;-8.09;59.51
75855;BME280;64502;59.976;30.316;2024-02-14T07:38:02;102246.13;;;-8.08;58.61
75855;BME280;64502;59.976;30.316;2024-02-14T07:40:28;102240.31;;;-8.04;59.04
75855;BME280;64502;59.976;30.316;2024-02-14T07:42:57;102245.06;;;-7.92;58.94
75855;BME280;64502;59.976;30.316;2024-02-14T07:45:22;102251.53;;;-7.81;58.65
75855;BME280;64502;59.976;30.316;2024-02-14T07:47:51;102245.97;;;-7.70;58.38
75855;BME280;64502;59.976;30.316;2024-02-14T07:50:17;102249.69;;;-7.64;57.95
75855;BME280;64502;59.976;30.316;2024-02-14T07:52:44;102242.91;;;-7.62;57.31
75855;BME280;64502;59.976;30.316;2024-02-14T07:55:10;102238.59;;;-7.63;57.79
75855;BME280;64502;59.976;30.316;2024-02-14T07:57:39;102247.22;;;-7.61;57.10
75855;BME280;64502;59.976;30.316;2024-02-14T08:00:06;102236.16;;;-7.60;57.36
75855;BME280;64502;59.976;30.316;2024-02-14T08:02:35;102245.75;;;-7.55;57.67
75855;BME280;64502;59.976;30.316;2024-02-14T08:05:02;102253.44;;;-7.55;56.79
75855;BME280;64502;59.976;30.316;2024-02-14T08:07:30;102262.84;;;-7.54;57.67
75855;BME280;64502;59.976;30.316;2024-02-14T08:09:56;102257.03;;;-7.50;56.71
75855;BME280;64502;59.976;30.316;2024-02-14T08:12:22;102249.47;;;-7.47;56.87
75855;BME280;64502;59.976;30.316;2024-02-14T08:14:48;102254.09;;;-7.39;56.74
75855;BME280;64502;59.976;30.316;2024-02-14T08:17:14;102249.13;;;-7.34;57.31
75855;BME280;64502;59.976;30.316;2024-02-14T08:19:58;102251.13;;;-7.27;55.37
75855;BME280;64502;59.976;30.316;2024-02-14T08:22:23;102255.63;;;-7.21;56.43
75855;BME280;64502;59.976;30.316;2024-02-14T08:24:49;102256.75;;;-7.15;56.35
75855;BME280;64502;59.976;30.316;2024-02-14T08:27:15;102259.75;;;-7.04;55.51
75855;BME280;64502;59.976;30.316;2024-02-14T08:29:40;102253.97;;;-6.98;55.05
75855;BME280;64502;59.976;30.316;2024-02-14T08:34:50;102257.34;;;-6.99;55.42
75855;BME280;64502;59.976;30.316;2024-02-14T08:37:16;102258.16;;;-7.00;54.48
75855;BME280;64502;59.976;30.316;2024-02-14T08:39:41;102254.75;;;-6.99;54.82
75855;BME280;64502;59.976;30.316;2024-02-14T08:42:07;102266.81;;;-6.98;54.63
75855;BME280;64502;59.976;30.316;2024-02-14T08:44:38;102264.28;;;-6.97;54.47
75855;BME280;64502;59.976;30.316;2024-02-14T08:47:04;102265.09;;;-6.98;54.81
75855;BME280;64502;59.976;30.316;2024-02-14T08:49:30;102267.72;;;-6.96;55.04
75855;BME280;64502;59.976;30.316;2024-02-14T08:51:55;102262.69;;;-6.93;55.10
75855;BME280;64502;59.976;30.316;2024-02-14T08:54:21;102271.41;;;-6.89;54.61
75855;BME280;64502;59.976;30.316;2024-02-14T08:56:48;102268.66;;;-6.94;53.86
75855;BME280;64502;59.976;30.316;2024-02-14T08:59:14;102272.09;;;-6.94;54.45
75855;BME280;64502;59.976;30.316;2024-02-14T09:04:24;102272.97;;;-6.71;55.54
75855;BME280;64502;59.976;30.316;2024-02-14T09:06:49;102269.91;;;-6.60;54.87
75855;BME280;64502;59.976;30.316;2024-02-14T09:09:15;102272.72;;;-6.54;53.80
75855;BME280;64502;59.976;30.316;2024-02-14T09:11:41;102278.84;;;-6.51;53.68
75855;BME280;64502;59.976;30.316;2024-02-14T09:14:07;102285.13;;;-6.42;54.27
75855;BME280;64502;59.976;30.316;2024-02-14T09:16:33;102276.59;;;-6.41;53.22
75855;BME280;64502;59.976;30.316;2024-02-14T09:18:59;102278.25;;;-6.43;53.48
75855;BME280;64502;59.976;30.316;2024-02-14T09:21:26;102287.81;;;-6.39;54.63
75855;BME280;64502;59.976;30.316;2024-02-14T09:23:53;102278.41;;;-6.39;53.51
75855;BME280;64502;59.976;30.316;2024-02-14T09:26:18;102279.31;;;-6.38;52.79
75855;BME280;64502;59.976;30.316;2024-02-14T09:28:44;102284.19;;;-6.44;52.31
75855;BME280;64502;59.976;30.316;2024-02-14T09:31:10;102272.09;;;-6.47;53.18
75855;BME280;64502;59.976;30.316;2024-02-14T09:36:23;102286.44;;;-6.54;53.88
75855;BME280;64502;59.976;30.316;2024-02-14T09:41:38;102277.69;;;-6.59;53.68
75855;BME280;64502;59.976;30.316;2024-02-14T09:44:05;102286.13;;;-6.61;54.16
75855;BME280;64502;59.976;30.316;2024-02-14T09:46:31;102286.22;;;-6.60;53.52
75855;BME280;64502;59.976;30.316;2024-02-14T09:48:59;102286.13;;;-6.61;52.99
75855;BME280;64502;59.976;30.316;2024-02-14T09:51:25;102282.69;;;-6.62;54.05
75855;BME280;64502;59.976;30.316;2024-02-14T09:53:53;102286.25;;;-6.58;54.42
75855;BME280;64502;59.976;30.316;2024-02-14T09:56:19;102289.97;;;-6.50;54.36
75855;BME280;64502;59.976;30.316;2024-02-14T09:58:49;102288.56;;;-6.42;53.68
75855;BME280;64502;59.976;30.316;2024-02-14T10:01:23;102282.00;;;-6.34;54.12
75855;BME280;64502;59.976;30.316;2024-02-14T10:03:53;102279.63;;;-6.29;52.86
75855;BME280;64502;59.976;30.316;2024-02-14T10:06:19;102280.66;;;-6.24;54.13
75855;BME280;64502;59.976;30.316;2024-02-14T10:08:48;102276.66;;;-6.16;53.80
75855;BME280;64502;59.976;30.316;2024-02-14T10:11:15;102277.53;;;-6.15;52.77
75855;BME280;64502;59.976;30.316;2024-02-14T10:13:41;102276.78;;;-6.13;52.28
75855;BME280;64502;59.976;30.316;2024-02-14T10:16:07;102293.94;;;-6.12;52.40
75855;BME280;64502;59.976;30.316;2024-02-14T10:18:34;102281.03;;;-6.13;53.16
75855;BME280;64502;59.976;30.316;2024-02-14T10:21:00;102274.09;;;-6.16;53.32
75855;BME280;64502;59.976;30.316;2024-02-14T10:23:28;102274.09;;;-6.16;53.42
75855;BME280;64502;59.976;30.316;2024-02-14T10:25:56;102277.38;;;-6.20;53.51
75855;BME280;64502;59.976;30.316;2024-02-14T10:28:22;102263.38;;;-6.28;52.25
75855;BME280;64502;59.976;30.316;2024-02-14T10:30:48;102287.00;;;-6.38;53.75
75855;BME280;64502;59.976;30.316;2024-02-14T10:33:17;102283.28;;;-6.46;54.75
75855;BME280;64502;59.976;30.316;2024-02-14T10:35:44;102282.06;;;-6.56;55.80
75855;BME280;64502;59.976;30.316;2024-02-14T10:38:11;102278.41;;;-6.63;56.75
75855;BME280;64502;59.976;30.316;2024-02-14T10:40:37;102290.97;;;-6.69;57.38
75855;BME280;64502;59.976;30.316;2024-02-14T10:43:08;102284.09;;;-6.70;58.80
75855;BME280;64502;59.976;30.316;2024-02-14T10:45:39;102284.09;;;-6.70;59.75
75855;BME280;64502;59.976;30.316;2024-02-14T10:48:11;102292.75;;;-6.68;60.51
75855;BME280;64502;59.976;30.316;2024-02-14T10:50:40;102292.00;;;-6.65;61.24
75855;BME280;64502;59.976;30.316;2024-02-14T10:53:13;102291.28;;;-6.61;61.08
75855;BME280;64502;59.976;30.316;2024-02-14T10:55:40;102297.06;;;-6.67;61.11
75855;BME280;64502;59.976;30.316;2024-02-14T10:58:08;102296.00;;;-6.72;60.90
75855;BME280;64502;59.976;30.316;2024-02-14T11:00:35;102299.28;;;-6.76;61.65
75855;BME280;64502;59.976;30.316;2024-02-14T11:03:01;102297.50;;;-6.77;62.89
75855;BME280;64502;59.976;30.316;2024-02-14T11:05:27;102300.94;;;-6.77;62.97
75855;BME280;64502;59.976;30.316;2024-02-14T11:07:53;102294.91;;;-6.79;63.45
75855;BME280;64502;59.976;30.316;2024-02-14T11:10:20;102291.50;;;-6.78;64.29
75855;BME280;64502;59.976;30.316;2024-02-14T11:13:09;102288.06;;;-6.78;64.93
75855;BME280;64502;59.976;30.316;2024-02-14T11:15:35;102280.19;;;-6.83;64.99
75855;BME280;64502;59.976;30.316;2024-02-14T11:18:05;102282.75;;;-6.83;65.83
75855;BME280;64502;59.976;30.316;2024-02-14T11:20:35;102288.84;;;-6.81;66.83
75855;BME280;64502;59.976;30.316;2024-02-14T11:23:06;102278.63;;;-6.79;67.07
75855;BME280;64502;59.976;30.316;2024-02-14T11:25:37;102281.97;;;-6.82;66.78
75855;BME280;64502;59.976;30.316;2024-02-14T11:28:16;102287.25;;;-6.77;66.63
75855;BME280;64502;59.976;30.316;2024-02-14T11:30:43;102294.59;;;-6.86;66.53
75855;BME280;64502;59.976;30.316;2024-02-14T11:35:46;102294.38;;;-6.93;67.83
75855;BME280;64502;59.976;30.316;2024-02-14T11:38:13;102287.44;;;-6.95;67.64
75855;BME280;64502;59.976;30.316;2024-02-14T11:40:39;102295.19;;;-6.94;67.87
75855;BME280;64502;59.976;30.316;2024-02-14T11:45:57;102297.63;;;-6.97;68.01
75855;BME280;64502;59.976;30.316;2024-02-14T11:48:22;102294.94;;;-7.00;68.08
75855;BME280;64502;59.976;30.316;2024-02-14T11:51:09;102292.94;;;-7.07;67.79
75855;BME280;64502;59.976;30.316;2024-02-14T11:53:35;102284.22;;;-7.12;68.89
75855;BME280;64502;59.976;30.316;2024-02-14T11:56:02;102292.06;;;-7.07;69.12
75855;BME280;64502;59.976;30.316;2024-02-14T11:58:27;102288.84;;;-7.03;69.25
75855;BME280;64502;59.976;30.316;2024-02-14T12:00:53;102284.69;;;-7.00;69.67
75855;BME280;64502;59.976;30.316;2024-02-14T12:03:23;102279.63;;;-6.98;70.32
75855;BME280;64502;59.976;30.316;2024-02-14T12:05:51;102281.44;;;-6.96;69.76
75855;BME280;64502;59.976;30.316;2024-02-14T12:08:18;102274.53;;;-6.97;70.42
75855;BME280;64502;59.976;30.316;2024-02-14T12:10:44;102280.66;;;-6.93;70.83
75855;BME280;64502;59.976;30.316;2024-02-14T12:13:15;102278.34;;;-6.87;70.36
75855;BME280;64502;59.976;30.316;2024-02-14T12:15:44;102269.13;;;-6.82;71.11
75855;BME280;64502;59.976;30.316;2024-02-14T12:18:11;102264.22;;;-6.76;70.59
75855;BME280;64502;59.976;30.316;2024-02-14T12:20:41;102267.94;;;-6.67;70.77
75855;BME280;64502;59.976;30.316;2024-02-14T12:23:07;102269.88;;;-6.62;70.59
75855;BME280;64502;59.976;30.316;2024-02-14T12:25:33;102265.69;;;-6.60;70.71
75855;BME280;64502;59.976;30.316;2024-02-14T12:28:00;102270.75;;;-6.61;70.22
75855;BME280;64502;59.976;30.316;2024-02-14T12:30:47;102270.91;;;-6.57;69.95
75855;BME280;64502;59.976;30.316;2024-02-14T12:33:22;102259.03;;;-6.55;70.47
75855;BME280;64502;59.976;30.316;2024-02-14T12:35:49;102257.25;;;-6.56;70.29
75855;BME280;64502;59.976;30.316;2024-02-14T12:38:18;102250.50;;;-6.54;70.39
75855;BME280;64502;59.976;30.316;2024-02-14T12:40:43;102255.66;;;-6.52;70.69
75855;BME280;64502;59.976;30.316;2024-02-14T12:43:13;102251.34;;;-6.53;70.24
75855;BME280;64502;59.976;30.316;2024-02-14T12:45:40;102254.00;;;-6.52;70.59
75855;BME280;64502;59.976;30.316;2024-02-14T12:48:07;102266.06;;;-6.49;70.37
75855;BME280;64502;59.976;30.316;2024-02-14T12:50:37;102259.28;;;-6.47;70.39
75855;BME280;64502;59.976;30.316;2024-02-14T12:53:04;102263.75;;;-6.41;70.75
75855;BME280;64502;59.976;30.316;2024-02-14T12:55:29;102256.78;;;-6.45;70.00
75855;BME280;64502;59.976;30.316;2024-02-14T12:57:55;102256.72;;;-6.47;70.38
75855;BME280;64502;59.976;30.316;2024-02-14T13:00:24;102255.03;;;-6.46;70.34
75855;BME280;64502;59.976;30.316;2024-02-14T13:02:50;102262.75;;;-6.46;70.27
75855;BME280;64502;59.976;30.316;2024-02-14T13:05:16;102256.94;;;-6.41;70.99